Terminal Aerodrome Forecast
Issued by NWS

Home | Current Version | Previous Version | Text Only | Print | Product List | Glossary On
Versions: 1 2 3 4 5 6 7 8 9 10 11 12 13 14 15 16 17 18 19
000
FTUS42 KJAX 231000 AAB
TAFVQQ
TAF AMD
KVQQ 231030Z 2311/2406 25003KT 3SM BR BKN003
      TEMPO 2311/2313 1SM BR OVC002
     FM231300 29007KT P6SM SCT070
     FM232300 12006KT P6SM SCT060=

USA.gov is the U.S. government's official web portal to all federal, state and local government web resources and services.